Time;durP1;ratioP1;P1;durP2;ratioP2;P2;SDS_P1;SDS_P2;PMS_P1;PMS_P2;Temp;Humidity;BMP_temperature;BMP_pressure;BME280_temperature;BME280_humidity;BME280_pressure;Samples;Min_cycle;Max_cycle;Signal;HPM_P1;HPM_P2
2021/08/23 00:01:37;;;;;;;;;6.50;5.00;;;;;19.48;58.67;101526.44;5096887;27;62152;-61
2021/08/23 00:04:02;;;;;;;;;6.00;5.25;;;;;19.45;58.93;101531.28;5097265;27;46908;-61
2021/08/23 00:06:28;;;;;;;;;7.00;5.75;;;;;19.42;58.95;101524.44;5097036;27;49285;-61
2021/08/23 00:08:53;;;;;;;;;6.50;6.00;;;;;19.40;59.23;101529.09;5095648;27;63001;-61
2021/08/23 00:11:18;;;;;;;;;4.00;4.00;;;;;19.39;59.23;101527.44;5096275;27;69414;-62
2021/08/23 00:13:44;;;;;;;;;8.75;5.75;;;;;19.39;59.11;101520.31;5096290;27;68340;-61
2021/08/23 00:16:09;;;;;;;;;6.00;5.00;;;;;19.39;59.39;101514.13;5097282;27;45350;-61
2021/08/23 00:18:35;;;;;;;;;6.00;6.00;;;;;19.39;59.31;101519.44;5096485;27;64123;-61
2021/08/23 00:21:03;;;;;;;;;5.00;5.00;;;;;19.37;59.40;101508.13;5096144;27;64422;-61
2021/08/23 00:23:34;;;;;;;;;7.25;7.00;;;;;19.32;59.45;101513.97;5097252;27;45275;-60
2021/08/23 00:26:00;;;;;;;;;6.75;4.75;;;;;19.30;59.99;101518.66;5097004;27;45256;-60
2021/08/23 00:28:25;;;;;;;;;6.00;4.75;;;;;19.26;59.65;101512.00;5096992;27;45674;-61
2021/08/23 00:30:51;;;;;;;;;10.00;8.00;;;;;19.23;59.90;101513.19;5096405;27;63164;-61
2021/08/23 00:33:17;;;;;;;;;5.50;5.50;;;;;19.22;60.10;101516.84;5095404;27;72327;-60
2021/08/23 00:35:42;;;;;;;;;6.50;5.50;;;;;19.21;60.10;101512.50;5096237;27;45362;-60
2021/08/23 00:38:08;;;;;;;;;5.00;5.00;;;;;19.19;60.21;101519.00;5096480;27;45350;-62
2021/08/23 00:40:33;;;;;;;;;6.00;5.00;;;;;19.17;60.33;101505.84;5096320;27;45372;-61
2021/08/23 00:42:59;;;;;;;;;7.50;6.00;;;;;19.14;60.54;101511.53;5095293;27;64684;-61
2021/08/23 00:45:24;;;;;;;;;8.50;8.50;;;;;19.11;60.57;101507.34;5093437;27;45441;-61
2021/08/23 00:47:50;;;;;;;;;10.25;8.00;;;;;19.08;60.65;101507.69;5095299;27;69438;-60
2021/08/23 00:50:15;;;;;;;;;7.50;7.00;;;;;19.09;60.59;101506.69;5096240;27;45505;-61
2021/08/23 00:52:41;;;;;;;;;8.75;8.25;;;;;19.08;61.02;101499.69;5095446;27;61941;-61
2021/08/23 00:55:06;;;;;;;;;6.75;6.00;;;;;19.09;61.02;101497.88;5095832;27;45449;-61
2021/08/23 00:57:32;;;;;;;;;14.00;12.50;;;;;19.09;60.75;101501.34;5096180;27;45405;-61
2021/08/23 00:59:57;;;;;;;;;7.50;5.75;;;;;19.10;60.91;101502.22;5095504;27;61080;-62
2021/08/23 01:02:45;;;;;;;;;3.75;3.75;;;;;19.10;61.01;101496.88;5095734;27;68840;-61
2021/08/23 01:05:15;;;;;;;;;7.25;6.25;;;;;19.09;60.89;101495.22;5078417;27;45307;-61
2021/08/23 01:07:48;;;;;;;;;8.50;6.50;;;;;19.09;61.06;101490.69;5078434;27;45490;-61
2021/08/23 01:10:15;;;;;;;;;6.50;6.00;;;;;19.10;61.08;101488.88;5096706;27;45563;-62
2021/08/23 01:12:40;;;;;;;;;8.00;7.25;;;;;19.12;60.65;101489.56;5096446;27;46050;-61
2021/08/23 01:15:06;;;;;;;;;10.00;8.00;;;;;19.13;61.00;101491.22;5060368;27;70627;-60
2021/08/23 01:17:31;;;;;;;;;8.00;7.00;;;;;19.15;61.21;101485.69;5096721;27;45272;-60
2021/08/23 01:19:59;;;;;;;;;7.00;7.00;;;;;19.17;60.97;101491.69;5095708;27;67278;-60
2021/08/23 01:22:25;;;;;;;;;7.00;7.00;;;;;19.18;61.00;101496.03;5081440;27;46229;-61
2021/08/23 01:24:52;;;;;;;;;6.75;4.50;;;;;19.18;61.01;101493.34;5064824;27;50655;-61
2021/08/23 01:27:17;;;;;;;;;5.00;5.00;;;;;19.16;61.32;101490.03;5081912;27;45307;-61
2021/08/23 01:29:46;;;;;;;;;5.75;5.00;;;;;19.20;61.12;101497.53;5063996;27;67223;-61
2021/08/23 01:32:24;;;;;;;;;5.25;5.00;;;;;19.19;61.02;101489.69;5099932;27;45348;-61
2021/08/23 01:34:49;;;;;;;;;6.75;5.25;;;;;19.19;61.17;101495.88;5065606;27;45420;-61
2021/08/23 01:37:18;;;;;;;;;7.00;5.00;;;;;19.18;61.03;101498.69;5100042;27;45503;-61
2021/08/23 01:39:45;;;;;;;;;5.00;5.00;;;;;19.17;61.34;101486.38;5081887;27;45482;-61
2021/08/23 01:42:10;;;;;;;;;6.50;5.25;;;;;19.18;61.12;101488.03;5099726;27;46208;-61
2021/08/23 01:44:36;;;;;;;;;6.00;5.00;;;;;19.16;60.87;101496.19;5080556;27;69837;-61
2021/08/23 01:47:01;;;;;;;;;5.50;4.75;;;;;19.16;61.15;101496.19;5099810;27;45282;-61
2021/08/23 01:49:26;;;;;;;;;6.25;6.25;;;;;19.15;61.71;101489.22;5099816;27;45310;-61
2021/08/23 01:51:52;;;;;;;;;5.00;4.25;;;;;19.16;61.52;101498.03;5098584;27;74314;-60
2021/08/23 01:54:18;;;;;;;;;3.75;3.75;;;;;19.15;61.44;101497.19;5081205;27;45408;-61
2021/08/23 01:56:43;;;;;;;;;6.00;5.00;;;;;19.16;61.85;101506.84;5098872;27;45436;-61
2021/08/23 01:59:09;;;;;;;;;5.75;4.00;;;;;19.15;61.92;101502.53;5098824;27;68372;-61
2021/08/23 02:01:34;;;;;;;;;6.00;5.50;;;;;19.17;61.74;101502.34;5098566;27;72122;-61
2021/08/23 02:04:00;;;;;;;;;4.25;4.25;;;;;19.15;61.79;101507.84;5098472;27;71077;-62
2021/08/23 02:06:25;;;;;;;;;6.00;3.00;;;;;19.18;61.75;101499.53;5099621;27;45399;-60
2021/08/23 02:08:51;;;;;;;;;5.75;4.50;;;;;19.18;61.88;101509.34;5099524;27;45427;-62
2021/08/23 02:11:16;;;;;;;;;8.25;5.25;;;;;19.19;62.21;101505.69;5099312;27;45370;-61
2021/08/23 02:13:42;;;;;;;;;5.50;5.00;;;;;19.19;62.42;101501.19;5099333;27;45311;-61
2021/08/23 02:16:07;;;;;;;;;5.75;4.00;;;;;19.20;62.67;101510.84;5098633;27;65575;-61
2021/08/23 02:18:33;;;;;;;;;3.75;3.00;;;;;19.19;62.94;101511.00;5099334;27;45358;-62
2021/08/23 02:20:58;;;;;;;;;7.00;5.75;;;;;19.19;63.06;101517.19;5098936;27;46102;-61
2021/08/23 02:23:23;;;;;;;;;8.00;5.00;;;;;19.19;62.86;101513.66;5098213;27;73184;-61
2021/08/23 02:25:49;;;;;;;;;6.50;4.00;;;;;19.19;62.76;101508.34;5098546;27;62732;-62
2021/08/23 02:28:14;;;;;;;;;5.25;4.25;;;;;19.21;63.16;101509.00;5099155;27;45632;-61
2021/08/23 02:30:40;;;;;;;;;4.25;4.00;;;;;19.21;63.24;101509.84;5097906;27;74405;-61
2021/08/23 02:33:05;;;;;;;;;4.25;4.00;;;;;19.22;62.84;101510.66;5098529;27;45164;-61
2021/08/23 02:35:31;;;;;;;;;7.25;4.00;;;;;19.22;63.07;101511.50;5098107;27;67482;-61
2021/08/23 02:37:56;;;;;;;;;3.50;3.50;;;;;19.22;63.16;101514.19;5098978;27;45284;-61
2021/08/23 02:40:21;;;;;;;;;8.25;7.00;;;;;19.23;62.89;101517.66;5098306;27;45326;-60
2021/08/23 02:42:47;;;;;;;;;6.00;5.50;;;;;19.21;63.20;101520.50;5097940;27;69098;-60
2021/08/23 02:45:12;;;;;;;;;6.50;5.50;;;;;19.23;63.08;101509.66;5098851;27;45507;-61
2021/08/23 02:47:38;;;;;;;;;5.00;5.00;;;;;19.23;63.09;101515.84;5098032;27;66727;-61
2021/08/23 02:50:07;;;;;;;;;6.50;6.00;;;;;19.21;63.38;101515.19;5098734;27;45344;-60
2021/08/23 02:52:33;;;;;;;;;5.00;4.75;;;;;19.21;63.10;101517.00;5080398;27;45419;-62
2021/08/23 02:54:58;;;;;;;;;7.75;5.50;;;;;19.22;63.38;101510.66;5098578;27;45324;-61
2021/08/23 02:57:23;;;;;;;;;5.50;5.00;;;;;19.22;63.88;101513.34;5097717;27;69556;-60
2021/08/23 02:59:49;;;;;;;;;7.25;5.75;;;;;19.22;63.98;101508.00;5079600;27;65695;-60
2021/08/23 03:02:14;;;;;;;;;6.50;5.00;;;;;19.22;63.79;101511.50;5097609;27;71206;-62
2021/08/23 03:04:39;;;;;;;;;4.75;3.75;;;;;19.24;63.92;101508.66;5098604;27;45418;-61
2021/08/23 03:07:05;;;;;;;;;5.00;5.00;;;;;19.24;63.96;101511.34;5097971;27;58022;-61
2021/08/23 03:09:30;;;;;;;;;5.25;5.25;;;;;19.24;63.41;101511.34;5098395;27;45799;-62
2021/08/23 03:11:56;;;;;;;;;6.50;4.00;;;;;19.23;63.45;101502.53;5098214;27;49840;-61
2021/08/23 03:14:21;;;;;;;;;7.75;4.00;;;;;19.24;63.39;101500.69;5097521;27;60220;-60
2021/08/23 03:16:47;;;;;;;;;8.50;6.00;;;;;19.23;63.36;101507.84;5098290;27;45369;-62
2021/08/23 03:19:12;;;;;;;;;7.00;5.00;;;;;19.23;63.46;101515.84;5097419;27;68865;-61
2021/08/23 03:21:37;;;;;;;;;7.00;6.00;;;;;19.24;63.48;101514.00;5096519;27;63435;-61
2021/08/23 03:24:03;;;;;;;;;7.00;6.00;;;;;19.22;64.03;101513.34;5097258;27;69307;-60
2021/08/23 03:26:28;;;;;;;;;5.50;5.50;;;;;19.17;64.56;101515.66;5098246;27;45236;-61
2021/08/23 03:28:54;;;;;;;;;7.00;5.25;;;;;19.12;64.73;101510.84;5098000;27;45513;-61
2021/08/23 03:31:19;;;;;;;;;6.00;5.75;;;;;19.07;65.04;101514.03;5097096;27;68735;-61
2021/08/23 03:33:44;;;;;;;;;5.25;4.25;;;;;19.04;65.08;101509.06;5097352;27;61947;-60
2021/08/23 03:36:10;;;;;;;;;7.00;5.75;;;;;19.02;65.37;101505.72;5097483;27;45648;-61
2021/08/23 03:38:35;;;;;;;;;6.75;4.75;;;;;18.98;65.54;101507.88;5097762;27;45366;-61
2021/08/23 03:41:01;;;;;;;;;5.75;5.25;;;;;18.97;65.68;101508.88;5097933;27;45349;-61
2021/08/23 03:43:26;;;;;;;;;5.75;5.75;;;;;18.96;65.68;101509.06;5096955;27;45232;-62
2021/08/23 03:45:52;;;;;;;;;7.75;6.50;;;;;18.95;65.52;101512.69;5097286;27;60800;-61
2021/08/23 03:48:17;;;;;;;;;5.00;5.00;;;;;18.93;65.96;101509.34;5097820;27;45925;-60
2021/08/23 03:50:42;;;;;;;;;7.50;5.50;;;;;18.93;66.26;101504.03;5097741;27;45491;-60
2021/08/23 03:53:08;;;;;;;;;7.50;6.50;;;;;18.90;66.08;101512.34;5097858;27;45616;-61
2021/08/23 03:55:33;;;;;;;;;5.00;5.00;;;;;18.90;66.26;101509.69;5096724;27;65210;-62
2021/08/23 03:57:59;;;;;;;;;7.75;5.50;;;;;18.89;66.14;101513.34;5097643;27;45475;-61
2021/08/23 04:00:24;;;;;;;;;6.25;5.25;;;;;18.89;66.38;101522.16;5097703;27;45296;-59
2021/08/23 04:02:49;;;;;;;;;9.50;8.00;;;;;18.88;66.21;101509.84;5079375;27;45367;-61
2021/08/23 04:05:15;;;;;;;;;6.25;5.50;;;;;18.86;66.48;101514.50;5096803;27;61751;-60
2021/08/23 04:07:40;;;;;;;;;7.25;5.75;;;;;18.83;66.62;101507.69;5097109;27;55531;-60
2021/08/23 04:10:06;;;;;;;;;6.00;6.00;;;;;18.82;66.66;101511.34;5097528;27;45231;-60
2021/08/23 04:12:32;;;;;;;;;9.00;7.00;;;;;18.80;66.74;101513.34;5097408;27;45362;-61
2021/08/23 04:14:59;;;;;;;;;10.25;8.00;;;;;18.77;66.59;101504.88;5097368;27;45502;-61
2021/08/23 04:17:24;;;;;;;;;10.75;7.00;;;;;18.75;66.97;101510.34;5097304;27;46814;-60
2021/08/23 04:19:50;;;;;;;;;6.75;6.00;;;;;18.71;66.65;101511.69;5096463;27;66582;-61
2021/08/23 04:22:15;;;;;;;;;10.00;7.00;;;;;18.67;66.93;101510.34;5097161;27;45280;-61
2021/08/23 04:24:40;;;;;;;;;12.25;8.00;;;;;18.65;66.95;101507.88;5096671;27;61482;-61
2021/08/23 04:27:06;;;;;;;;;7.25;7.00;;;;;18.63;66.64;101511.66;5096904;27;57391;-61
2021/08/23 04:29:31;;;;;;;;;6.50;4.75;;;;;18.61;67.19;101513.66;5096586;27;45260;-61
2021/08/23 04:31:57;;;;;;;;;7.00;5.25;;;;;18.59;67.09;101507.69;5096563;27;62255;-61
2021/08/23 04:34:22;;;;;;;;;9.25;8.00;;;;;18.56;67.05;101516.84;5096184;27;68986;-61
2021/08/23 04:36:47;;;;;;;;;8.00;7.75;;;;;18.51;67.45;101514.69;5096284;27;65478;-61
2021/08/23 04:39:13;;;;;;;;;6.25;6.25;;;;;18.49;67.11;101511.34;5096186;27;69168;-61
2021/08/23 04:41:39;;;;;;;;;6.75;6.25;;;;;18.46;67.60;101514.34;5097281;27;45161;-61
2021/08/23 04:44:04;;;;;;;;;8.50;6.75;;;;;18.44;67.67;101524.31;5096953;27;47244;-61
2021/08/23 04:46:30;;;;;;;;;7.50;5.25;;;;;18.43;67.75;101522.66;5096609;27;45265;-61
2021/08/23 04:48:55;;;;;;;;;8.50;7.00;;;;;18.41;67.76;101521.97;5095758;27;72739;-61
2021/08/23 04:51:20;;;;;;;;;5.75;5.75;;;;;18.40;67.60;101522.97;5096232;27;61720;-61
2021/08/23 04:53:46;;;;;;;;;7.50;7.50;;;;;18.39;67.88;101521.31;5096968;27;45478;-61
2021/08/23 04:56:11;;;;;;;;;5.00;5.00;;;;;18.38;67.93;101522.31;5099761;27;46016;-60
2021/08/23 04:58:37;;;;;;;;;7.25;7.00;;;;;18.39;67.50;101521.31;5100184;27;45441;-60
2021/08/23 05:01:02;;;;;;;;;7.75;7.00;;;;;18.39;68.00;101521.31;5099611;27;64679;-61
2021/08/23 05:03:27;;;;;;;;;7.75;7.00;;;;;18.39;67.67;101522.13;5099930;27;57099;-61
2021/08/23 05:05:53;;;;;;;;;8.00;7.00;;;;;18.39;67.64;101518.66;5100321;27;46309;-60
2021/08/23 05:08:19;;;;;;;;;8.00;7.00;;;;;18.39;67.49;101526.63;5100398;27;45323;-61
2021/08/23 05:10:44;;;;;;;;;10.00;6.75;;;;;18.38;67.74;101533.75;5100529;27;45307;-61
2021/08/23 05:13:10;;;;;;;;;6.25;5.75;;;;;18.38;67.79;101532.94;5100437;27;45376;-61
2021/08/23 05:15:35;;;;;;;;;8.50;8.00;;;;;18.37;67.68;101526.78;5099307;27;66859;-60
2021/08/23 05:18:00;;;;;;;;;7.75;6.50;;;;;18.37;67.75;101529.44;5099476;27;66122;-61
2021/08/23 05:20:26;;;;;;;;;14.25;7.25;;;;;18.37;67.45;101532.09;5099851;27;45570;-61
2021/08/23 05:22:51;;;;;;;;;8.50;7.00;;;;;18.37;67.65;101534.75;5099652;27;60930;-61
2021/08/23 05:25:17;;;;;;;;;9.00;6.75;;;;;18.36;67.63;101541.06;5099341;27;46106;-61
2021/08/23 05:27:42;;;;;;;;;10.75;7.00;;;;;18.34;67.80;101534.25;5100182;27;45433;-61
2021/08/23 05:30:08;;;;;;;;;10.00;7.00;;;;;18.32;67.79;101538.91;5100237;27;45376;-61
2021/08/23 05:32:33;;;;;;;;;8.25;7.75;;;;;18.32;67.85;101546.91;5100148;27;45600;-60
2021/08/23 05:34:59;;;;;;;;;9.00;7.00;;;;;18.30;67.95;101544.38;5080617;27;68861;-61
2021/08/23 05:37:24;;;;;;;;;7.50;6.25;;;;;18.30;67.97;101546.22;5100018;27;45282;-62
2021/08/23 05:39:50;;;;;;;;;10.25;8.75;;;;;18.29;68.04;101549.88;5081530;27;45263;-61
2021/08/23 05:42:16;;;;;;;;;10.50;7.75;;;;;18.30;67.76;101554.22;5100003;27;45270;-60
2021/08/23 05:44:41;;;;;;;;;11.00;10.00;;;;;18.29;68.11;101553.34;5099166;27;45264;-61
2021/08/23 05:47:06;;;;;;;;;9.50;8.00;;;;;18.30;68.28;101559.53;5098883;27;66903;-60
2021/08/23 05:49:32;;;;;;;;;9.25;9.25;;;;;18.30;68.25;101559.53;5099086;27;60379;-59
2021/08/23 05:51:58;;;;;;;;;13.25;10.00;;;;;18.31;67.90;101553.22;5099653;27;45370;-61
2021/08/23 05:54:23;;;;;;;;;7.00;7.00;;;;;18.31;68.11;101555.88;5099310;27;50398;-60
2021/08/23 05:56:49;;;;;;;;;8.50;8.00;;;;;18.30;68.09;101557.69;5098818;27;65186;-60
2021/08/23 05:59:14;;;;;;;;;10.75;8.00;;;;;18.29;68.29;101557.88;5098701;27;68209;-60
2021/08/23 06:01:39;;;;;;;;;10.50;9.00;;;;;18.27;68.17;101566.03;5099709;27;45610;-60
2021/08/23 06:04:05;;;;;;;;;11.00;9.25;;;;;18.26;68.23;101564.34;5098605;27;67182;-60
2021/08/23 06:06:30;;;;;;;;;13.50;10.25;;;;;18.25;68.35;101568.00;5097514;27;71225;-60
2021/08/23 06:08:56;;;;;;;;;11.25;9.50;;;;;18.24;68.27;101567.16;5081241;27;45412;-61
2021/08/23 06:11:21;;;;;;;;;14.50;13.00;;;;;18.24;68.47;101574.31;5099221;27;45455;-60
2021/08/23 06:13:48;;;;;;;;;12.75;11.25;;;;;18.23;68.46;101570.81;5098501;27;65134;-60
2021/08/23 06:16:13;;;;;;;;;13.00;11.50;;;;;18.24;68.46;101574.31;5099133;27;45945;-60
2021/08/23 06:18:38;;;;;;;;;11.25;10.00;;;;;18.25;68.53;101573.31;5098384;27;65040;-60
2021/08/23 06:21:04;;;;;;;;;13.50;10.25;;;;;18.26;68.61;101576.81;5098976;27;45549;-61
2021/08/23 06:23:30;;;;;;;;;11.00;10.00;;;;;18.29;68.55;101576.47;5098912;27;45964;-60
2021/08/23 06:25:55;;;;;;;;;14.25;13.50;;;;;18.30;68.54;101578.97;5098894;27;45263;-60
2021/08/23 06:28:22;;;;;;;;;11.00;10.50;;;;;18.32;68.51;101579.63;5098043;27;69307;-61
2021/08/23 06:30:47;;;;;;;;;15.25;12.25;;;;;18.35;68.69;101583.81;5097855;27;45269;-61
2021/08/23 06:33:12;;;;;;;;;13.00;13.00;;;;;18.36;68.52;101580.97;5098997;27;45357;-60
2021/08/23 06:35:39;;;;;;;;;14.75;13.00;;;;;18.37;68.73;101577.31;5097344;27;72041;-60
2021/08/23 06:38:04;;;;;;;;;18.50;14.25;;;;;18.41;68.71;101583.19;5098890;27;45325;-60
2021/08/23 06:40:29;;;;;;;;;12.25;12.00;;;;;18.44;68.58;101574.88;5097880;27;59894;-60
2021/08/23 06:42:55;;;;;;;;;17.25;13.75;;;;;18.48;68.54;101578.03;5097460;27;75232;-61
2021/08/23 06:45:20;;;;;;;;;16.50;14.50;;;;;18.53;68.09;101576.56;5096963;27;71388;-60
2021/08/23 06:47:45;;;;;;;;;16.25;16.25;;;;;18.57;67.95;101574.38;5098009;27;63529;-60
2021/08/23 06:50:11;;;;;;;;;15.25;13.75;;;;;18.60;67.93;101578.53;5097488;27;68478;-60
2021/08/23 06:52:37;;;;;;;;;16.75;15.00;;;;;18.63;67.60;101578.22;5098190;27;56771;-60
2021/08/23 06:55:03;;;;;;;;;13.75;12.75;;;;;18.64;67.49;101571.91;5097748;27;45874;-60
2021/08/23 06:57:29;;;;;;;;;15.25;12.75;;;;;18.67;67.36;101582.22;5098372;27;45390;-60
2021/08/23 06:59:54;;;;;;;;;13.75;12.00;;;;;18.69;67.16;101585.53;5097703;27;63051;-59
2021/08/23 07:02:19;;;;;;;;;15.50;13.50;;;;;18.69;67.06;101583.72;5080131;27;48191;-60
2021/08/23 07:04:49;;;;;;;;;17.25;11.00;;;;;18.72;66.65;101579.09;5098254;27;45320;-60
2021/08/23 07:07:14;;;;;;;;;16.50;14.75;;;;;18.75;66.82;101576.09;5098511;27;45312;-60
2021/08/23 07:09:40;;;;;;;;;16.75;15.25;;;;;18.77;66.67;101572.25;5098404;27;45244;-60
2021/08/23 07:12:06;;;;;;;;;13.50;10.25;;;;;18.78;66.51;101571.25;5079679;27;50998;-60
2021/08/23 07:14:31;;;;;;;;;12.75;12.25;;;;;18.80;66.48;101579.91;5097617;27;45302;-60
2021/08/23 07:16:56;;;;;;;;;15.50;14.50;;;;;18.83;66.33;101576.06;5098275;27;45244;-60
2021/08/23 07:19:22;;;;;;;;;17.75;13.00;;;;;18.86;66.25;101588.25;5097078;27;64359;-59
2021/08/23 07:21:47;;;;;;;;;13.25;11.75;;;;;18.90;66.33;101581.59;5096831;27;72887;-60
2021/08/23 07:24:13;;;;;;;;;13.50;11.25;;;;;18.91;66.29;101594.72;5096896;27;73239;-61
2021/08/23 07:26:38;;;;;;;;;15.25;10.00;;;;;18.94;65.85;101590.91;5098153;27;45292;-59
2021/08/23 07:29:04;;;;;;;;;15.50;13.50;;;;;18.97;65.79;101587.94;5097155;27;67303;-60
2021/08/23 07:31:29;;;;;;;;;12.75;11.25;;;;;18.97;65.46;101586.09;5098164;27;45283;-60
2021/08/23 07:33:55;;;;;;;;;12.25;11.50;;;;;19.00;65.86;101584.97;5097108;27;67115;-61
2021/08/23 07:36:20;;;;;;;;;14.25;10.00;;;;;19.05;65.81;101582.63;5097572;27;57164;-60
2021/08/23 07:38:45;;;;;;;;;13.00;12.75;;;;;19.10;65.50;101588.25;5097047;27;66313;-60
2021/08/23 07:41:11;;;;;;;;;12.25;10.00;;;;;19.15;64.99;101589.59;5096671;27;75604;-61
2021/08/23 07:43:36;;;;;;;;;13.50;10.50;;;;;19.19;64.45;101583.78;5097969;27;45407;-60
2021/08/23 07:46:01;;;;;;;;;12.50;9.50;;;;;19.20;64.27;101588.13;5097081;27;64434;-60
2021/08/23 07:48:27;;;;;;;;;11.00;11.00;;;;;19.24;64.05;101599.25;5097908;27;45444;-61
2021/08/23 07:50:53;;;;;;;;;11.75;11.75;;;;;19.27;64.07;101589.09;5097695;27;45426;-60
2021/08/23 07:53:18;;;;;;;;;13.50;11.25;;;;;19.31;63.73;101596.78;5097833;27;46076;-60
2021/08/23 07:55:43;;;;;;;;;13.75;11.50;;;;;19.33;63.46;101586.78;5096808;27;64315;-61
2021/08/23 07:58:10;;;;;;;;;14.25;11.00;;;;;19.33;62.96;101590.25;5096902;27;62916;-60
2021/08/23 08:00:35;;;;;;;;;9.25;9.00;;;;;19.35;62.98;101582.94;5096747;27;46240;-60
2021/08/23 08:03:01;;;;;;;;;14.25;10.00;;;;;19.38;63.00;101587.06;5097632;27;45374;-60
2021/08/23 08:05:26;;;;;;;;;12.00;12.00;;;;;19.45;62.49;101581.91;5097768;27;45769;-60
2021/08/23 08:07:51;;;;;;;;;12.00;8.50;;;;;19.46;62.21;101579.06;5097530;27;45523;-60
2021/08/23 08:10:17;;;;;;;;;12.25;10.75;;;;;19.50;62.60;101583.06;5096492;27;70865;-61
2021/08/23 08:12:42;;;;;;;;;15.75;14.00;;;;;19.55;62.28;101590.56;5095952;27;45292;-61
2021/08/23 08:15:08;;;;;;;;;12.75;11.50;;;;;19.53;62.46;101588.06;5097453;27;45324;-60
2021/08/23 08:17:34;;;;;;;;;13.50;11.75;;;;;19.57;62.65;101591.22;5078891;27;45250;-59
2021/08/23 08:19:59;;;;;;;;;12.25;11.25;;;;;19.61;62.24;101584.53;5097327;27;45328;-60
2021/08/23 08:22:24;;;;;;;;;15.25;11.00;;;;;19.66;62.29;101587.53;5096910;27;45315;-61
2021/08/23 08:24:50;;;;;;;;;13.75;11.75;;;;;19.70;62.17;101580.84;5097483;27;45304;-60
2021/08/23 08:27:15;;;;;;;;;16.25;12.25;;;;;19.73;62.06;101593.84;5092076;27;65201;-60
2021/08/23 08:29:41;;;;;;;;;12.50;10.25;;;;;19.76;62.13;101590.00;5081946;27;67869;-60
2021/08/23 08:32:07;;;;;;;;;14.00;11.00;;;;;19.81;62.07;101593.00;5095107;27;72289;-61
2021/08/23 08:34:33;;;;;;;;;12.50;11.75;;;;;19.84;61.56;101598.00;5096076;27;45346;-60
2021/08/23 08:36:58;;;;;;;;;13.25;11.50;;;;;19.89;62.25;101600.16;5096687;27;45439;-61
2021/08/23 08:39:24;;;;;;;;;12.00;12.00;;;;;20.00;62.01;101606.94;5096830;27;51122;-61
2021/08/23 08:41:49;;;;;;;;;13.00;10.00;;;;;20.12;61.43;101599.44;5097126;27;45441;-61
2021/08/23 08:44:14;;;;;;;;;11.00;10.00;;;;;20.21;61.45;101605.53;5077839;27;58928;-60
2021/08/23 08:46:40;;;;;;;;;18.00;12.25;;;;;20.26;61.11;101604.00;5095958;27;66897;-60
2021/08/23 08:49:05;;;;;;;;;10.75;9.25;;;;;20.28;61.02;101598.50;5096699;27;45299;-60
2021/08/23 08:51:35;;;;;;;;;11.75;11.00;;;;;20.28;60.66;101602.00;5061713;27;45287;-60
2021/08/23 08:54:00;;;;;;;;;12.00;10.25;;;;;20.24;61.31;101595.34;5096803;27;45493;-60
2021/08/23 08:56:26;;;;;;;;;12.75;10.25;;;;;20.21;60.65;101593.03;5095791;27;68860;-60
2021/08/23 08:58:51;;;;;;;;;10.00;9.25;;;;;20.15;60.56;101599.03;5095417;27;65904;-61
2021/08/23 09:01:16;;;;;;;;;12.50;11.00;;;;;20.08;61.05;101601.59;5095717;27;70561;-60
2021/08/23 09:03:45;;;;;;;;;12.50;11.00;;;;;20.03;60.77;101593.28;5095686;27;67339;-60
2021/08/23 09:06:11;;;;;;;;;14.00;10.25;;;;;20.04;61.48;101604.78;5096669;27;45601;-61
2021/08/23 09:08:41;;;;;;;;;13.75;11.00;;;;;20.03;61.10;101609.28;5096623;27;45311;-61
2021/08/23 09:11:17;;;;;;;;;13.00;11.00;;;;;20.01;61.05;101609.47;5096554;27;45230;-59
2021/08/23 09:14:03;;;;;;;;;14.25;11.00;;;;;20.04;61.21;101599.47;5096624;27;46039;-59
2021/08/23 09:16:29;;;;;;;;;13.00;10.25;;;;;20.06;61.11;101605.44;5096609;27;45416;-60
2021/08/23 09:18:55;;;;;;;;;11.75;8.50;;;;;20.10;61.04;101604.09;5096550;27;46852;-60
2021/08/23 09:21:27;;;;;;;;;15.25;10.75;;;;;20.17;61.10;101600.56;5096133;27;45259;-60
2021/08/23 09:23:57;;;;;;;;;11.00;10.25;;;;;20.20;60.70;101607.38;5096756;27;45437;-60
2021/08/23 09:26:22;;;;;;;;;11.75;11.75;;;;;20.24;60.75;101608.69;5096617;27;45609;-61
2021/08/23 09:28:56;;;;;;;;;12.25;10.75;;;;;20.28;60.81;101607.34;5077438;27;56471;-61
2021/08/23 09:31:29;;;;;;;;;10.00;8.25;;;;;20.27;61.10;101603.00;5094301;27;45438;-60
2021/08/23 09:33:57;;;;;;;;;11.50;10.50;;;;;20.30;60.95;101596.50;5094693;27;45643;-60
2021/08/23 09:36:23;;;;;;;;;11.50;10.00;;;;;20.28;60.68;101596.66;5094623;27;45656;-61
2021/08/23 09:39:08;;;;;;;;;8.75;7.75;;;;;20.27;60.45;101604.84;5093820;27;66656;-60
2021/08/23 09:41:40;;;;;;;;;9.25;9.00;;;;;20.28;61.11;101607.34;5095248;27;45510;-60
2021/08/23 09:44:10;;;;;;;;;10.25;9.00;;;;;20.27;61.08;101612.84;5098782;27;45482;-60
2021/08/23 09:46:36;;;;;;;;;9.25;9.25;;;;;20.25;60.78;101606.88;5099500;27;45569;-60
2021/08/23 09:49:05;;;;;;;;;8.00;8.00;;;;;20.21;61.53;101608.22;5099579;27;45894;-60
2021/08/23 09:51:32;;;;;;;;;10.50;9.50;;;;;20.17;61.33;101610.38;5099475;27;45374;-60
2021/08/23 09:54:14;;;;;;;;;10.75;10.25;;;;;20.16;61.30;101609.56;5098829;27;45406;-60
2021/08/23 09:56:50;;;;;;;;;10.50;9.00;;;;;20.14;61.11;101608.91;5081325;27;45296;-61
2021/08/23 09:59:18;;;;;;;;;9.00;8.75;;;;;20.11;61.47;101616.44;5099586;27;46211;-61
2021/08/23 10:01:45;;;;;;;;;8.00;8.00;;;;;20.07;61.67;101615.13;5099392;27;45382;-60
2021/08/23 10:04:11;;;;;;;;;10.50;9.25;;;;;20.06;61.77;101618.78;5099412;27;45425;-61
2021/08/23 10:06:37;;;;;;;;;11.75;9.25;;;;;20.07;61.92;101623.13;5099380;27;45349;-60
2021/08/23 10:09:03;;;;;;;;;9.75;8.25;;;;;20.04;61.58;101620.78;5098335;27;46266;-60
2021/08/23 10:11:32;;;;;;;;;9.25;8.75;;;;;20.04;61.58;101610.94;5064236;27;45289;-59
2021/08/23 10:14:01;;;;;;;;;8.25;8.25;;;;;20.02;61.59;101618.28;5081438;27;45398;-60
2021/08/23 10:16:28;;;;;;;;;7.75;7.75;;;;;20.01;61.75;101614.81;5099470;27;45168;-60
2021/08/23 10:18:53;;;;;;;;;9.00;8.50;;;;;20.01;61.80;101614.81;5099012;27;46074;-61
2021/08/23 10:21:19;;;;;;;;;9.00;9.00;;;;;20.01;61.96;101616.63;5098970;27;45333;-61
2021/08/23 10:23:46;;;;;;;;;10.50;8.00;;;;;20.02;62.02;101616.47;5099445;27;45504;-60
2021/08/23 10:26:12;;;;;;;;;6.25;6.25;;;;;20.01;61.69;101622.81;5080917;27;45642;-58
2021/08/23 10:28:37;;;;;;;;;8.25;7.00;;;;;20.01;61.97;101620.13;5079995;27;65082;-61
2021/08/23 10:31:07;;;;;;;;;10.50;9.75;;;;;20.01;62.53;101617.47;5080261;27;45963;-61
2021/08/23 10:33:37;;;;;;;;;8.50;8.00;;;;;19.96;62.61;101614.47;5098047;27;45357;-61
2021/08/23 10:36:04;;;;;;;;;8.75;8.75;;;;;19.93;62.79;101608.66;5080962;27;45445;-61
2021/08/23 10:38:30;;;;;;;;;7.75;7.50;;;;;19.92;63.05;101610.50;5097529;27;45374;-59
2021/08/23 10:41:21;;;;;;;;;8.50;8.50;;;;;19.91;63.32;101606.16;5097795;27;73058;-59
2021/08/23 10:43:48;;;;;;;;;7.50;7.00;;;;;19.92;63.20;101613.16;5080726;27;45248;-61
2021/08/23 10:46:36;;;;;;;;;9.25;8.25;;;;;19.94;63.40;101608.47;5098882;27;45509;-61
2021/08/23 10:49:14;;;;;;;;;11.50;10.00;;;;;19.96;63.60;101611.81;5080475;27;46214;-61
2021/08/23 10:51:41;;;;;;;;;11.75;8.00;;;;;20.04;63.66;101610.13;5098646;27;45899;-61
2021/08/23 10:54:26;;;;;;;;;8.50;8.50;;;;;20.14;63.58;101616.06;5080216;27;45434;-61
2021/08/23 10:57:01;;;;;;;;;12.00;9.00;;;;;20.27;63.42;101604.84;5098619;27;45352;-61
2021/08/23 10:59:45;;;;;;;;;8.50;8.25;;;;;20.41;63.27;101595.25;5098269;27;46088;-58
2021/08/23 11:02:33;;;;;;;;;9.00;8.00;;;;;20.55;62.61;101602.53;5098534;27;45323;-61
2021/08/23 11:05:07;;;;;;;;;12.75;9.75;;;;;20.68;62.63;101590.41;5098611;27;45280;-60
2021/08/23 11:07:33;;;;;;;;;8.00;7.25;;;;;20.79;61.69;101592.72;5098459;27;45617;-62
2021/08/23 11:10:03;;;;;;;;;10.00;8.00;;;;;20.91;61.57;101590.47;5098002;27;46062;-62
2021/08/23 11:12:58;;;;;;;;;11.50;8.00;;;;;21.01;61.38;101585.69;5098080;27;45978;-62
2021/08/23 11:15:23;;;;;;;;;9.50;8.75;;;;;21.09;60.51;101595.50;5081586;27;45415;-61
2021/08/23 11:17:55;;;;;;;;;9.67;8.00;;;;;21.09;60.70;101592.81;5098097;27;45451;-59